Zortman, Montana
Current Conditions -  °F | °C
As of 10:53 PM on Thursday 18 Dec 2014 (Local Time) from KHVR Reporting Station
Scattered Clouds Scattered Clouds  
Wind Chill: 19°   Ceiling: Unl
Heat Index: 29°   Visibility: 10mi
Dew Point: 25°   Wind: 12mph
Humidity: 85%   Direction: 230°SW
Pressure: 29.9"   Gusts: NA
Location:  47.92°N, 108.53°W
Report Text: KHVR 190553Z AUTO 23010KT 10SM SCT080 M02/M04 A2990 RMK AO2 SLP156 T10171039 11006 21056 52001
Loading
Personal Weather Stations






























Interactive Weather Map New forecast layout! Learn more

10-Day Weather Forecast

Advertisements
Track Severe Weather on mobile